Time;durP1;ratioP1;P1;durP2;ratioP2;P2;SDS_P1;SDS_P2;PMS_P1;PMS_P2;Temp;Humidity;BMP_temperature;BMP_pressure;BME280_temperature;BME280_humidity;BME280_pressure;Samples;Min_cycle;Max_cycle;Signal;HPM_P1;HPM_P2
2023/01/14 00:02:23;;;;;;;10.57;1.80;;;;;;;-144.47;78.12;52937.53;4995144;28;20377;-66
2023/01/14 00:04:48;;;;;;;8.15;1.30;;;;;;;-144.47;78.27;52945.47;5006345;28;20040;-66
2023/01/14 00:07:15;;;;;;;7.53;1.73;;;;;;;-144.47;78.42;52933.56;4993332;28;20117;-65
2023/01/14 00:09:41;;;;;;;4.72;1.10;;;;;;;-144.47;78.42;52915.69;4999296;28;20080;-65
2023/01/14 00:12:06;;;;;;;7.38;1.23;;;;;;;-144.47;78.26;52949.44;5004277;28;20105;-66
2023/01/14 00:14:32;;;;;;;8.45;1.75;;;;;;;-144.47;78.01;52955.41;5011096;28;20431;-67
2023/01/14 00:16:59;;;;;;;6.38;1.33;;;;;;;-144.47;78.04;52943.47;4998076;28;20033;-64
2023/01/14 00:19:24;;;;;;;6.13;1.40;;;;;;;-144.47;77.52;52959.38;5001569;28;20033;-67
2023/01/14 00:21:51;;;;;;;7.03;1.60;;;;;;;-144.47;77.01;52949.44;4998120;28;20030;-66
2023/01/14 00:24:19;;;;;;;7.50;1.42;;;;;;;-144.47;76.43;52927.59;5000959;28;20026;-66
2023/01/14 00:26:48;;;;;;;4.15;1.35;;;;;;;-144.47;75.58;52917.66;4996648;28;20026;-67
2023/01/14 00:29:22;;;;;;;5.70;1.17;;;;;;;-144.47;75.43;52957.38;5002625;28;20027;-65
2023/01/14 00:31:47;;;;;;;5.47;1.40;;;;;;;-144.47;75.01;52949.44;4993166;28;20165;-67
2023/01/14 00:34:14;;;;;;;7.85;1.70;;;;;;;-144.47;74.37;52931.56;5007472;28;20108;-61
2023/01/14 00:36:39;;;;;;;5.43;1.35;;;;;;;-144.47;74.04;52927.59;4997438;28;20038;-67
2023/01/14 00:39:05;;;;;;;7.90;1.30;;;;;;;-144.47;73.60;52927.59;5002182;28;20026;-68
2023/01/14 00:41:30;;;;;;;3.80;1.30;;;;;;;-144.47;73.47;52909.72;5004612;28;20034;-66
2023/01/14 00:43:58;;;;;;;6.88;2.05;;;;;;;-144.47;73.23;52919.66;4991411;28;20026;-67
2023/01/14 00:46:32;;;;;;;13.27;1.88;;;;;;;-144.47;72.89;52941.50;4995858;28;20057;-64
2023/01/14 00:48:59;;;;;;;7.05;1.30;;;;;;;-144.47;72.42;52899.78;5004115;28;20105;-66
2023/01/14 00:51:26;;;;;;;6.78;1.25;;;;;;;-144.47;72.54;52925.59;4998567;28;20030;-65
2023/01/14 00:53:52;;;;;;;8.75;2.00;;;;;;;-144.47;72.49;52915.69;5008679;28;20026;-61
2023/01/14 00:56:19;;;;;;;6.53;1.38;;;;;;;-144.47;72.54;52915.69;4995451;28;20018;-66
2023/01/14 00:58:45;;;;;;;7.68;1.42;;;;;;;-144.47;72.68;52905.75;4994658;28;20022;-62
2023/01/14 01:01:11;;;;;;;6.07;1.27;;;;;;;-144.47;73.00;52891.84;5007778;28;20067;-66
2023/01/14 01:03:41;;;;;;;5.53;1.73;;;;;;;-144.47;72.90;52933.56;5009315;28;20042;-67
2023/01/14 01:06:07;;;;;;;8.95;1.30;;;;;;;-144.47;73.00;52923.63;5000455;28;20041;-67
2023/01/14 01:08:33;;;;;;;9.00;1.30;;;;;;;-144.47;73.28;52905.75;4997215;28;20022;-63
2023/01/14 01:10:59;;;;;;;6.20;1.48;;;;;;;-144.47;73.32;52931.56;5003932;28;20026;-67
2023/01/14 01:13:25;;;;;;;6.35;1.38;;;;;;;-144.47;73.15;52921.63;5003029;28;20528;-64
2023/01/14 01:15:52;;;;;;;7.72;1.17;;;;;;;-144.47;72.68;52925.59;4998284;28;20026;-66
2023/01/14 01:18:18;;;;;;;7.55;1.20;;;;;;;-144.47;72.77;52917.66;4999363;28;20412;-67
2023/01/14 01:20:44;;;;;;;5.78;1.67;;;;;;;-144.47;72.76;52913.69;5003292;28;20026;-65
2023/01/14 01:23:13;;;;;;;6.85;1.23;;;;;;;-144.47;72.79;52931.56;4992169;28;20477;-65
2023/01/14 01:25:38;;;;;;;;;;;;;;;-144.47;72.35;52917.66;4996539;28;20030;-66
2023/01/14 01:28:05;;;;;;;9.05;1.90;;;;;;;-144.47;72.08;52925.59;5002837;28;19917;-66
2023/01/14 01:30:30;;;;;;;10.35;1.75;;;;;;;-144.47;71.56;52905.75;4992461;28;20041;-67
2023/01/14 01:32:56;;;;;;;4.18;1.30;;;;;;;-144.47;71.86;52941.50;4996812;28;20025;-66
2023/01/14 01:35:22;;;;;;;9.30;1.65;;;;;;;-144.47;72.18;52937.53;4998923;28;20026;-65
2023/01/14 01:37:48;;;;;;;11.63;2.10;;;;;;;-144.47;71.96;52935.53;4998617;28;20144;-66
2023/01/14 01:40:14;;;;;;;8.73;1.65;;;;;;;-144.47;71.91;52933.56;5003807;28;20022;-66
2023/01/14 01:42:55;;;;;;;6.40;1.23;;;;;;;-144.47;71.73;52915.69;5002693;28;20036;-68
2023/01/14 01:45:38;;;;;;;10.30;1.20;;;;;;;-144.47;71.56;52937.53;4982241;28;20038;-66
2023/01/14 01:48:10;;;;;;;9.52;2.03;;;;;;;-144.47;71.71;52935.53;5003209;28;20562;-67
2023/01/14 01:50:36;;;;;;;7.90;1.50;;;;;;;-144.47;71.83;52905.75;4994146;28;20401;-69
2023/01/14 01:53:03;;;;;;;3.83;1.02;;;;;;;-144.47;71.80;52919.66;5001586;28;20034;-66
2023/01/14 01:55:34;;;;;;;5.15;1.30;;;;;;;-144.47;71.73;52923.63;5001164;28;20122;-65
2023/01/14 01:58:01;;;;;;;8.38;1.10;;;;;;;-144.47;71.48;52889.84;4987689;28;20376;-66
2023/01/14 02:00:26;;;;;;;12.00;1.92;;;;;;;-144.47;71.61;52911.69;5001477;28;20060;-69
2023/01/14 02:03:02;;;;;;;8.48;1.58;;;;;;;-144.47;71.56;52931.56;5005337;28;20046;-64
2023/01/14 02:05:28;;;;;;;6.28;1.38;;;;;;;-144.47;71.37;52935.53;4999645;28;20080;-69
2023/01/14 02:07:55;;;;;;;5.72;1.40;;;;;;;-144.47;71.88;52919.66;4996160;28;20025;-67
2023/01/14 02:10:29;;;;;;;10.25;1.65;;;;;;;-144.47;71.80;52927.59;4991667;28;20036;-65
2023/01/14 02:13:07;;;;;;;9.00;1.30;;;;;;;-144.47;72.32;52915.69;4995710;28;20029;-66
2023/01/14 02:15:55;;;;;;;8.48;1.15;;;;;;;-144.47;72.06;52917.66;4999457;28;20077;-65
2023/01/14 02:18:39;;;;;;;7.80;1.33;;;;;;;-144.47;72.22;52921.63;4997388;28;20460;-66
2023/01/14 02:21:27;;;;;;;7.93;1.35;;;;;;;-144.47;71.83;52907.72;4995261;28;20050;-66
2023/01/14 02:23:58;;;;;;;5.40;1.42;;;;;;;-144.47;71.48;52909.72;4997436;28;20496;-65
2023/01/14 02:26:35;;;;;;;8.35;1.50;;;;;;;-144.47;71.48;52929.59;5002712;28;20042;-64
2023/01/14 02:29:44;;;;;;;4.68;1.10;;;;;;;-144.47;71.34;52925.59;5002798;28;20021;-66
2023/01/14 02:32:24;;;;;;;7.63;1.15;;;;;;;-144.47;71.38;52915.69;5002987;28;20088;-67
2023/01/14 02:35:01;;;;;;;10.80;1.70;;;;;;;-144.47;71.20;52907.72;4998683;28;20133;-67
2023/01/14 02:37:30;;;;;;;6.40;1.23;;;;;;;-144.47;71.16;52945.47;4997066;28;20029;-67
2023/01/14 02:40:11;;;;;;;2.78;1.00;;;;;;;-144.47;71.11;52947.47;4999269;28;20030;-65
2023/01/14 02:45:41;;;;;;;10.85;1.92;;;;;;;-144.47;71.42;52939.50;5006215;28;20468;-64
2023/01/14 02:48:09;;;;;;;5.60;1.20;;;;;;;-144.47;71.50;52925.59;4998621;28;20030;-66
2023/01/14 02:50:36;;;;;;;7.40;1.83;;;;;;;-144.47;71.74;52905.75;5002293;28;20030;-66
2023/01/14 02:53:15;;;;;;;4.28;1.52;;;;;;;-144.47;71.93;52927.59;4999991;28;20686;-65
2023/01/14 02:55:40;;;;;;;7.93;1.48;;;;;;;-144.47;71.78;52891.84;4988767;28;20061;-66
2023/01/14 02:58:30;;;;;;;8.35;1.40;;;;;;;-144.47;71.98;52925.59;4992113;28;20058;-67
2023/01/14 03:01:21;;;;;;;7.03;1.10;;;;;;;-144.47;72.20;52925.59;5000202;28;20112;-65
2023/01/14 03:03:49;;;;;;;5.07;1.35;;;;;;;-144.47;72.40;52907.72;5009812;28;20033;-67
2023/01/14 03:07:01;;;;;;;6.78;1.45;;;;;;;-144.47;72.50;52925.59;5004728;28;20177;-66
2023/01/14 03:09:37;;;;;;;6.13;1.38;;;;;;;-144.47;72.51;52917.66;4984227;28;20030;-65
2023/01/14 03:12:15;;;;;;;9.00;1.58;;;;;;;-144.47;72.60;52923.63;5004435;28;20396;-67
2023/01/14 03:15:04;;;;;;;5.95;1.48;;;;;;;-144.47;72.60;52887.88;5005937;28;20512;-64
2023/01/14 03:18:07;;;;;;;8.77;1.42;;;;;;;-144.47;72.58;52911.69;5006635;28;20025;-67
2023/01/14 03:20:36;;;;;;;9.90;1.50;;;;;;;-144.47;72.83;52909.72;4996108;28;20633;-66
2023/01/14 03:23:06;;;;;;;8.43;1.20;;;;;;;-144.47;72.65;52937.53;4994067;28;20046;-67
2023/01/14 03:25:35;;;;;;;9.00;1.27;;;;;;;-144.47;73.11;52929.59;5005606;28;20064;-66
2023/01/14 03:28:03;;;;;;;6.70;1.10;;;;;;;-144.47;73.35;52929.59;4999801;28;20056;-67
2023/01/14 03:30:37;;;;;;;4.88;1.02;;;;;;;-144.47;73.93;52925.59;4998948;28;20456;-66
2023/01/14 03:33:12;;;;;;;6.93;1.45;;;;;;;-144.47;74.39;52897.81;5004977;28;20027;-66
2023/01/14 03:35:41;;;;;;;8.77;1.20;;;;;;;-144.47;74.28;52907.72;5005857;28;20058;-67
2023/01/14 03:38:33;;;;;;;9.13;1.38;;;;;;;-144.47;74.52;52917.66;5002717;28;20030;-67
2023/01/14 03:41:03;;;;;;;5.43;1.13;;;;;;;-144.47;74.61;52881.91;4986622;28;20033;-66
2023/01/14 03:43:32;;;;;;;10.48;1.67;;;;;;;-144.47;74.86;52899.78;5004485;28;20022;-62
2023/01/14 03:45:58;;;;;;;8.35;1.85;;;;;;;-144.47;74.58;52951.44;5000343;28;20472;-65
2023/01/14 03:48:25;;;;;;;11.82;1.60;;;;;;;-144.47;74.51;52941.50;4998835;28;20041;-65
2023/01/14 03:50:50;;;;;;;5.78;1.50;;;;;;;-144.47;74.69;52917.66;5001922;28;20981;-65
2023/01/14 03:53:24;;;;;;;6.75;1.20;;;;;;;-144.47;74.35;52913.69;5004226;28;20569;-66
2023/01/14 03:55:57;;;;;;;4.93;1.52;;;;;;;-144.47;74.56;52909.72;5000995;28;20606;-65
2023/01/14 03:58:22;;;;;;;6.90;1.25;;;;;;;-144.47;74.14;52907.72;4999943;28;20128;-66
2023/01/14 04:00:57;;;;;;;7.28;1.42;;;;;;;-144.47;74.27;52929.59;5005727;28;20074;-65
2023/01/14 04:03:25;;;;;;;2.25;0.95;;;;;;;-144.47;74.17;52925.59;4999222;28;20123;-66
2023/01/14 04:05:51;;;;;;;8.57;2.05;;;;;;;-144.47;73.99;52907.72;5007939;28;20511;-64
2023/01/14 04:08:21;;;;;;;6.78;1.38;;;;;;;-144.47;73.81;52955.41;5002959;28;20109;-66
2023/01/14 04:10:47;;;;;;;12.85;1.55;;;;;;;-144.47;74.01;52909.72;4993036;28;20026;-67
2023/01/14 04:15:59;;;;;;;4.97;1.25;;;;;;;-144.47;73.96;52923.63;5008146;28;20041;-67
2023/01/14 04:18:24;;;;;;;6.40;1.40;;;;;;;-144.47;74.05;52935.53;5007993;28;20030;-67
2023/01/14 04:20:50;;;;;;;4.32;1.88;;;;;;;-144.47;74.32;52925.59;4999234;28;20403;-67
2023/01/14 04:23:15;;;;;;;11.18;1.85;;;;;;;-144.47;74.23;52927.59;5001174;28;20018;-67
2023/01/14 04:25:41;;;;;;;7.25;1.77;;;;;;;-144.47;74.32;52907.72;5012597;28;20026;-63
2023/01/14 04:28:06;;;;;;;16.50;1.92;;;;;;;-144.47;74.52;52945.47;5009550;28;20072;-68
2023/01/14 04:30:32;;;;;;;3.88;1.00;;;;;;;-144.47;74.28;52945.47;5008432;28;20018;-66
2023/01/14 04:32:57;;;;;;;5.25;1.17;;;;;;;-144.47;74.50;52933.56;5008014;28;20054;-67
2023/01/14 04:35:22;;;;;;;5.25;1.67;;;;;;;-144.47;74.74;52927.59;4994659;28;20018;-64
2023/01/14 04:37:48;;;;;;;7.88;1.05;;;;;;;-144.47;74.79;52911.69;4997337;28;20753;-67
2023/01/14 04:40:13;;;;;;;4.57;1.45;;;;;;;-144.47;75.20;52895.81;4992536;28;20480;-64
2023/01/14 04:42:38;;;;;;;4.93;1.33;;;;;;;-144.47;74.94;52919.66;5005427;28;20034;-66
2023/01/14 04:45:04;;;;;;;7.15;1.30;;;;;;;-144.47;75.04;52941.50;4992471;28;20119;-66
2023/01/14 04:47:30;;;;;;;5.03;1.10;;;;;;;-144.47;75.11;52947.47;5005060;28;20030;-62
2023/01/14 04:49:56;;;;;;;4.65;0.88;;;;;;;-144.47;75.08;52933.56;5002013;28;20044;-68
2023/01/14 04:52:26;;;;;;;7.10;1.08;;;;;;;-144.47;75.21;52915.69;4994223;28;20030;-67
2023/01/14 04:54:52;;;;;;;6.93;1.63;;;;;;;-144.47;75.16;52943.47;5002822;28;20369;-64
2023/01/14 04:57:18;;;;;;;9.18;1.48;;;;;;;-144.47;75.14;52953.41;4999635;28;20420;-65
2023/01/14 04:59:43;;;;;;;10.00;1.70;;;;;;;-144.47;75.08;52921.63;4994986;28;20034;-66
2023/01/14 05:02:08;;;;;;;4.85;1.25;;;;;;;-144.47;74.77;52943.47;5011137;28;20025;-67
2023/01/14 05:04:35;;;;;;;8.98;1.20;;;;;;;-144.47;75.11;52921.63;5008421;28;20548;-67
2023/01/14 05:07:02;;;;;;;6.47;1.45;;;;;;;-144.47;74.66;52907.72;5002195;28;20468;-63
2023/01/14 05:09:30;;;;;;;11.40;1.77;;;;;;;-144.47;74.53;52923.63;5011311;28;20073;-67
2023/01/14 05:11:55;;;;;;;3.47;1.05;;;;;;;-144.47;74.64;52907.72;5010934;28;20068;-67
2023/01/14 05:14:21;;;;;;;7.28;1.40;;;;;;;-144.47;74.63;52931.56;5011231;28;20071;-66
2023/01/14 05:16:46;;;;;;;7.47;1.30;;;;;;;-144.47;74.67;52891.84;5010115;28;20030;-65
2023/01/14 05:19:11;;;;;;;5.25;1.13;;;;;;;-144.47;74.70;52915.69;5000009;28;20500;-66
2023/01/14 05:21:37;;;;;;;11.32;2.42;;;;;;;-144.47;75.16;52933.56;5008317;28;20037;-66
2023/01/14 05:24:02;;;;;;;8.15;1.67;;;;;;;-144.47;75.05;52909.72;5000370;28;20042;-64
2023/01/14 05:26:28;;;;;;;10.13;1.85;;;;;;;-144.47;75.31;52919.66;4993311;28;20030;-67
2023/01/14 05:28:53;;;;;;;7.60;1.27;;;;;;;-144.47;75.10;52915.69;5002781;28;20018;-65
2023/01/14 05:31:18;;;;;;;9.98;1.40;;;;;;;-144.47;74.75;52919.66;5000083;28;20093;-66
2023/01/14 05:33:44;;;;;;;13.57;1.90;;;;;;;-144.47;74.51;52943.47;5032698;22;20043;-66
2023/01/14 05:36:09;;;;;;;5.60;1.52;;;;;;;-144.47;74.54;52943.47;4995025;28;20029;-64
2023/01/14 05:38:35;;;;;;;7.82;1.45;;;;;;;-144.47;74.86;52919.66;4995210;28;20543;-65
2023/01/14 05:41:00;;;;;;;6.65;1.58;;;;;;;-144.47;74.77;52915.69;5002083;28;20464;-68
2023/01/14 05:46:14;;;;;;;11.40;1.65;;;;;;;-144.47;75.47;52915.69;5003910;28;20087;-65
2023/01/14 05:48:40;;;;;;;10.60;2.00;;;;;;;-144.47;75.78;52923.63;5008382;28;20427;-66
2023/01/14 05:51:10;;;;;;;8.77;1.63;;;;;;;-144.47;75.81;52939.50;4999908;28;20488;-64
2023/01/14 05:53:35;;;;;;;9.90;1.50;;;;;;;-144.47;76.40;52925.59;5005393;28;20447;-65
2023/01/14 05:56:01;;;;;;;7.97;1.38;;;;;;;-144.47;76.80;52945.47;4996170;28;20034;-66
2023/01/14 05:58:26;;;;;;;10.55;1.80;;;;;;;-144.47;76.74;52903.75;4987716;28;20029;-64
2023/01/14 06:06:28;;;;;;;12.55;1.75;;;;;;;-144.47;77.57;52915.69;4997722;28;20539;-66
2023/01/14 06:09:00;;;;;;;6.82;1.63;;;;;;;-144.47;78.28;52959.38;5008311;28;20640;-67
2023/01/14 06:11:27;;;;;;;10.18;1.15;;;;;;;-144.47;78.81;52949.44;5008371;28;20037;-66
2023/01/14 06:13:57;;;;;;;11.23;1.65;;;;;;;-144.47;79.45;52939.50;5008365;28;20381;-65
2023/01/14 06:16:24;;;;;;;8.32;1.50;;;;;;;-144.47;80.18;52971.28;4994863;28;20613;-66
2023/01/14 06:18:49;;;;;;;11.93;1.52;;;;;;;-144.47;80.79;52987.19;5007787;28;20115;-66
2023/01/14 06:21:17;;;;;;;6.47;1.50;;;;;;;-144.47;81.62;52957.38;4986446;28;20022;-67
2023/01/14 06:23:43;;;;;;;14.50;2.38;;;;;;;-144.47;81.91;52943.47;4979900;28;20475;-65
2023/01/14 06:26:11;;;;;;;7.85;1.70;;;;;;;-144.47;82.31;52943.47;4991312;28;20118;-68
2023/01/14 06:28:37;;;;;;;5.80;1.58;;;;;;;-144.47;82.39;52955.41;4992415;28;20030;-66
2023/01/14 06:31:17;;;;;;;5.15;1.10;;;;;;;-144.47;82.35;52977.25;4978798;28;20140;-67
2023/01/14 06:33:44;;;;;;;11.35;1.90;;;;;;;-144.47;82.23;52955.41;4976834;28;20468;-64
2023/01/14 06:36:12;;;;;;;4.53;1.42;;;;;;;-144.47;82.68;52963.34;4987108;28;20030;-66
2023/01/14 06:38:39;;;;;;;7.88;1.83;;;;;;;-144.47;82.47;52973.28;4999006;28;20022;-65
2023/01/14 06:41:06;;;;;;;8.73;1.50;;;;;;;-144.47;82.44;52987.19;4998825;28;20033;-65
2023/01/14 06:43:32;;;;;;;8.35;1.83;;;;;;;-144.47;82.34;52965.34;4986898;28;20364;-66
2023/01/14 06:45:58;;;;;;;17.75;1.80;;;;;;;-144.47;82.25;52975.25;5004497;28;20030;-66
2023/01/14 06:48:24;;;;;;;6.80;1.55;;;;;;;-144.47;82.05;52983.22;4991189;28;20494;-65
2023/01/14 06:50:51;;;;;;;8.82;1.83;;;;;;;-144.47;82.00;52951.44;5002185;28;20026;-65
2023/01/14 06:53:17;;;;;;;12.77;1.67;;;;;;;-144.47;82.38;52969.31;4987678;28;20018;-67
2023/01/14 06:55:43;;;;;;;10.98;1.58;;;;;;;-144.47;82.29;52955.41;5000705;28;20029;-64
2023/01/14 06:58:09;;;;;;;8.52;1.35;;;;;;;-144.47;82.37;52945.47;4982423;28;20027;-65
2023/01/14 07:00:35;;;;;;;9.45;1.70;;;;;;;-144.47;82.33;52971.28;5000353;28;20400;-66
2023/01/14 07:03:00;;;;;;;7.85;1.70;;;;;;;-144.47;82.52;52987.19;5000415;28;20444;-63
2023/01/14 07:05:25;;;;;;;9.40;1.65;;;;;;;-144.47;82.07;52985.19;4999812;28;20038;-65
2023/01/14 07:07:51;;;;;;;14.50;1.83;;;;;;;-144.47;81.96;52971.28;4997299;28;20025;-64
2023/01/14 07:10:18;;;;;;;8.00;1.77;;;;;;;-144.47;82.59;52957.38;4994508;28;20030;-66
2023/01/14 07:12:45;;;;;;;12.27;1.58;;;;;;;-144.47;81.95;52953.41;4998197;28;20026;-64
2023/01/14 07:15:11;;;;;;;10.50;1.80;;;;;;;-144.47;81.72;52957.38;4994978;28;20052;-65
2023/01/14 07:17:37;;;;;;;10.32;1.48;;;;;;;-144.47;82.03;52951.44;5002734;28;20022;-64
2023/01/14 07:20:02;;;;;;;16.58;1.85;;;;;;;-144.47;83.03;52987.19;4996744;28;20547;-62
2023/01/14 07:22:27;;;;;;;6.43;1.50;;;;;;;-144.47;82.05;52923.63;5008650;28;20038;-66
2023/01/14 07:24:53;;;;;;;10.90;1.60;;;;;;;-144.47;81.66;52971.28;5002737;28;20040;-64
2023/01/14 07:27:18;;;;;;;4.72;1.38;;;;;;;-144.47;82.34;52975.25;5003049;28;20117;-67
2023/01/14 07:29:43;;;;;;;7.43;1.23;;;;;;;-144.47;82.82;52971.28;4981825;28;20254;-65
2023/01/14 07:32:09;;;;;;;14.68;1.38;;;;;;;-144.47;83.37;52967.31;4984430;28;20433;-67
2023/01/14 07:34:34;;;;;;;8.98;1.40;;;;;;;-144.47;83.37;52969.31;4992209;28;20484;-68
2023/01/14 07:36:59;;;;;;;8.85;1.48;;;;;;;-144.47;83.67;52967.31;4997875;28;20027;-65
2023/01/14 07:39:25;;;;;;;12.07;1.77;;;;;;;-144.47;83.12;52977.25;4989396;28;20088;-67
2023/01/14 07:41:50;;;;;;;9.40;1.83;;;;;;;-144.47;82.50;52961.34;4999413;28;20054;-66
2023/01/14 07:44:23;;;;;;;10.23;2.20;;;;;;;-144.47;81.95;52971.28;4992352;28;20489;-65
2023/01/14 07:46:51;;;;;;;7.57;1.70;;;;;;;-144.47;81.56;52949.44;4999490;28;20029;-66
2023/01/14 07:49:16;;;;;;;5.03;1.27;;;;;;;-144.47;80.88;52983.22;4990841;28;20090;-66
2023/01/14 07:51:41;;;;;;;9.93;1.58;;;;;;;-144.47;81.00;52973.28;5000602;28;20101;-66
2023/01/14 07:54:07;;;;;;;11.52;1.50;;;;;;;-144.47;81.03;52951.44;4997167;28;20026;-66
2023/01/14 07:56:32;;;;;;;8.20;1.75;;;;;;;-144.47;81.03;52987.19;4998986;28;20030;-64
2023/01/14 07:58:57;;;;;;;8.20;1.50;;;;;;;-144.47;80.88;52951.44;4996045;28;20423;-67
2023/01/14 08:01:23;;;;;;;12.85;2.00;;;;;;;-144.47;81.15;52919.66;4992784;28;20136;-65
2023/01/14 08:03:48;;;;;;;9.07;1.80;;;;;;;-144.47;80.98;52943.47;5004337;28;20057;-67
2023/01/14 08:06:13;;;;;;;6.95;1.60;;;;;;;-144.47;80.63;52943.47;5002410;28;20112;-67
2023/01/14 08:08:39;;;;;;;8.93;1.90;;;;;;;-144.47;79.74;52959.38;4991321;28;20042;-66
2023/01/14 08:11:04;;;;;;;2.70;1.23;;;;;;;-144.47;78.99;52969.31;5004059;28;20392;-65
2023/01/14 08:13:31;;;;;;;5.88;1.20;;;;;;;-144.47;78.25;52985.19;5001583;28;20403;-65
2023/01/14 08:15:58;;;;;;;5.53;1.20;;;;;;;-144.47;77.95;52943.47;4991686;28;20038;-66
2023/01/14 08:18:24;;;;;;;8.43;1.58;;;;;;;-144.47;77.67;52981.22;4989313;28;20116;-65
2023/01/14 08:21:00;;;;;;;9.00;1.48;;;;;;;-144.47;77.25;52949.44;4991562;28;20173;-66
2023/01/14 08:23:25;;;;;;;12.57;1.45;;;;;;;-144.47;77.30;52939.50;4991152;28;20030;-65
2023/01/14 08:25:51;;;;;;;13.43;1.92;;;;;;;-144.47;77.41;52975.25;5005815;28;20360;-67
2023/01/14 08:28:17;;;;;;;7.25;1.25;;;;;;;-144.47;77.22;52957.38;4995097;28;20081;-65
2023/01/14 08:30:42;;;;;;;8.30;1.77;;;;;;;-144.47;77.07;52949.44;4986371;28;20026;-63
2023/01/14 08:33:07;;;;;;;6.20;1.40;;;;;;;-144.47;77.22;52939.50;4988219;28;20156;-67
2023/01/14 08:35:33;;;;;;;11.95;1.80;;;;;;;-144.47;76.96;52945.47;4997593;28;20400;-64
2023/01/14 08:37:58;;;;;;;8.32;1.70;;;;;;;-144.47;76.99;52947.47;4999965;28;20041;-66
2023/01/14 08:40:24;;;;;;;9.25;1.83;;;;;;;-144.47;77.39;52949.44;5000672;28;20022;-65
2023/01/14 08:42:49;;;;;;;8.18;1.70;;;;;;;-144.47;77.10;52937.53;4993474;28;20096;-66
2023/01/14 08:45:14;;;;;;;10.88;2.10;;;;;;;-144.47;76.64;52933.56;5004367;28;20038;-66
2023/01/14 08:47:40;;;;;;;11.68;1.77;;;;;;;-144.47;76.26;52943.47;4990477;28;20160;-66
2023/01/14 08:50:05;;;;;;;8.98;1.83;;;;;;;-144.47;76.39;52951.44;4991454;28;20139;-66
2023/01/14 08:52:31;;;;;;;12.77;1.90;;;;;;;-144.47;76.38;52919.66;5004858;28;20038;-65
2023/01/14 08:54:56;;;;;;;8.40;1.55;;;;;;;-144.47;76.44;52947.47;4989561;28;20106;-67
2023/01/14 08:57:21;;;;;;;8.40;2.30;;;;;;;-144.47;76.00;52935.53;5003975;28;20123;-65
2023/01/14 08:59:48;;;;;;;12.23;2.20;;;;;;;-144.47;75.63;52939.50;5002177;28;20056;-65
2023/01/14 09:02:15;;;;;;;7.47;1.60;;;;;;;-144.47;75.24;52921.63;5003190;28;20121;-66
2023/01/14 09:04:40;;;;;;;9.27;1.30;;;;;;;-144.47;75.32;52923.63;4989884;28;20036;-66
2023/01/14 09:18:03;;;;;;;12.88;2.10;;;;;;;-144.47;75.35;52929.59;4988895;28;20558;-64
2023/01/14 09:20:32;;;;;;;10.75;1.55;;;;;;;-144.47;74.57;52919.66;5005863;28;20026;-66
2023/01/14 09:22:58;;;;;;;15.07;1.70;;;;;;;-144.47;74.29;52905.75;4996149;28;20026;-65
2023/01/14 09:25:23;;;;;;;10.25;2.45;;;;;;;-144.47;74.14;52943.47;5004490;28;20037;-66
2023/01/14 09:27:48;;;;;;;8.93;2.78;;;;;;;-144.47;73.45;52933.56;5003835;28;20506;-66
2023/01/14 09:30:14;;;;;;;10.80;2.00;;;;;;;-144.47;73.40;52927.59;4995778;28;20032;-63
2023/01/14 09:32:40;;;;;;;14.32;2.67;;;;;;;-144.47;73.30;52935.53;4988987;28;20113;-66
2023/01/14 09:35:06;;;;;;;15.57;2.28;;;;;;;-144.47;72.93;52927.59;4987965;28;20515;-66
2023/01/14 09:37:33;;;;;;;12.13;1.88;;;;;;;-144.47;72.45;52943.47;5000560;28;20823;-64
2023/01/14 09:39:59;;;;;;;13.30;1.88;;;;;;;-144.47;72.25;52929.59;4994368;28;20061;-66
2023/01/14 09:42:32;;;;;;;8.07;1.98;;;;;;;-144.47;71.45;52913.69;4997791;28;20034;-67
2023/01/14 09:45:12;;;;;;;9.20;1.38;;;;;;;-144.47;70.80;52911.69;4990630;28;20492;-66
2023/01/14 09:47:37;;;;;;;15.02;1.90;;;;;;;-144.47;70.64;52911.69;4986930;28;20442;-65
2023/01/14 09:50:07;;;;;;;12.30;1.80;;;;;;;-144.47;71.02;52943.47;4999694;28;20026;-66
2023/01/14 09:53:02;;;;;;;11.85;2.05;;;;;;;-144.47;70.18;52893.81;4990904;28;20038;-67
2023/01/14 09:55:38;;;;;;;15.60;2.40;;;;;;;-144.47;68.39;52873.97;5006883;28;20024;-65
2023/01/14 09:58:19;;;;;;;12.63;2.00;;;;;;;-144.47;68.61;52923.63;4988524;28;20037;-66
2023/01/14 10:01:05;;;;;;;11.68;2.13;;;;;;;-144.47;68.48;52885.88;4993916;28;20037;-65
2023/01/14 10:03:42;;;;;;;18.15;2.35;;;;;;;-144.47;68.55;52909.72;4993034;28;20022;-68
2023/01/14 10:06:13;;;;;;;24.20;2.95;;;;;;;-144.47;68.07;52919.66;5007458;28;20030;-66
2023/01/14 10:08:44;;;;;;;12.45;2.20;;;;;;;-144.47;67.78;52887.88;5002137;28;20026;-66
2023/01/14 10:11:12;;;;;;;12.15;2.03;;;;;;;-144.47;66.78;52895.81;5001885;28;20030;-64
2023/01/14 10:14:10;;;;;;;14.23;2.05;;;;;;;-144.47;66.51;52883.91;4984412;28;20536;-66
2023/01/14 10:16:49;;;;;;;15.02;2.30;;;;;;;-144.47;66.38;52891.84;4978034;28;20038;-65
2023/01/14 10:19:40;;;;;;;14.87;1.77;;;;;;;-144.47;65.96;52883.91;4992933;28;20169;-65
2023/01/14 10:22:18;;;;;;;10.35;2.42;;;;;;;-144.47;65.96;52887.88;4991707;28;20109;-67
2023/01/14 10:24:43;;;;;;;9.95;1.60;;;;;;;-144.47;65.37;52893.81;5002194;28;20022;-66
2023/01/14 10:27:15;;;;;;;7.80;1.85;;;;;;;-144.47;64.89;52917.66;5000507;28;20036;-65
2023/01/14 10:29:42;;;;;;;9.30;1.98;;;;;;;-144.47;64.27;52901.78;4988416;28;20030;-68
2023/01/14 10:32:12;;;;;;;12.48;2.80;;;;;;;-144.47;64.99;52868.00;4992137;28;20436;-64
2023/01/14 10:34:41;;;;;;;14.82;2.72;;;;;;;-144.47;64.34;52903.75;4984359;28;20033;-65
2023/01/14 10:37:08;;;;;;;15.25;1.77;;;;;;;-144.47;64.25;52871.97;5006773;28;20149;-66
2023/01/14 10:39:33;;;;;;;12.25;1.85;;;;;;;-144.47;64.96;52889.84;5006457;28;20030;-67
2023/01/14 10:42:03;;;;;;;16.98;1.77;;;;;;;-144.47;64.50;52864.03;4994794;28;20511;-65
2023/01/14 10:44:29;;;;;;;10.35;1.50;;;;;;;-144.47;64.51;52891.84;4995354;28;20057;-66
2023/01/14 10:47:03;;;;;;;18.30;2.83;;;;;;;-144.47;64.68;52879.94;4993050;28;20030;-65
2023/01/14 10:49:33;;;;;;;7.20;2.13;;;;;;;-144.47;64.69;52887.88;4991464;28;20033;-66
2023/01/14 10:51:59;;;;;;;13.68;2.55;;;;;;;-144.47;64.67;52895.81;4992768;28;20248;-67
2023/01/14 10:54:27;;;;;;;14.88;2.50;;;;;;;-144.47;64.25;52873.97;5004678;28;20683;-67
2023/01/14 10:56:54;;;;;;;8.40;1.92;;;;;;;-144.47;64.30;52887.88;4996858;28;20022;-65
2023/01/14 10:59:30;;;;;;;14.32;2.03;;;;;;;-144.47;64.36;52891.84;4988788;28;20038;-66
2023/01/14 11:01:55;;;;;;;10.30;2.53;;;;;;;-144.47;63.92;52875.94;5001006;28;20023;-66
2023/01/14 11:04:26;;;;;;;19.33;2.67;;;;;;;-144.47;63.92;52862.06;5000778;28;20590;-67
2023/01/14 11:06:51;;;;;;;10.93;1.60;;;;;;;-144.47;64.32;52901.78;5003834;28;20030;-67
2023/01/14 11:09:23;;;;;;;14.07;2.10;;;;;;;-144.47;64.25;52887.88;5002687;28;20026;-66
2023/01/14 11:11:49;;;;;;;11.45;1.90;;;;;;;-144.47;64.12;52879.94;4988299;28;20034;-67
2023/01/14 11:14:26;;;;;;;16.88;2.20;;;;;;;-144.47;64.08;52885.88;5001667;28;20042;-66
2023/01/14 11:16:52;;;;;;;14.52;2.35;;;;;;;-144.47;64.25;52883.91;4991979;28;20415;-66
2023/01/14 11:19:20;;;;;;;9.82;1.90;;;;;;;-144.47;64.47;52899.78;4999210;28;20026;-67
2023/01/14 11:21:51;;;;;;;9.55;1.70;;;;;;;-144.47;64.27;52879.94;4992880;28;20026;-65
2023/01/14 11:24:29;;;;;;;12.80;2.05;;;;;;;-144.47;64.59;52834.25;5001366;28;20026;-66
2023/01/14 11:27:24;;;;;;;12.93;1.63;;;;;;;-144.47;64.39;52862.06;4995527;28;20594;-67
2023/01/14 11:29:58;;;;;;;16.10;2.25;;;;;;;-144.47;64.64;52891.84;4988885;28;20038;-68
2023/01/14 11:32:35;;;;;;;21.80;2.28;;;;;;;-144.47;65.00;52907.72;5001224;28;20109;-65
2023/01/14 11:35:17;;;;;;;28.00;2.45;;;;;;;-144.47;65.55;52871.97;5001709;28;20124;-65
2023/01/14 11:37:47;;;;;;;11.57;2.28;;;;;;;-144.47;65.43;52887.88;4997060;28;20115;-67
2023/01/14 11:43:22;;;;;;;13.97;2.50;;;;;;;-144.47;65.45;52895.81;5011506;28;20040;-66
2023/01/14 11:46:12;;;;;;;14.07;2.45;;;;;;;-144.47;65.74;52873.97;5006531;28;20272;-67
2023/01/14 11:48:40;;;;;;;22.13;3.38;;;;;;;-144.47;65.83;52907.72;5001018;28;20145;-65
2023/01/14 11:51:19;;;;;;;7.97;1.70;;;;;;;-144.47;65.91;52871.97;5001088;28;20060;-67
2023/01/14 11:53:50;;;;;;;16.48;1.75;;;;;;;-144.47;66.11;52895.81;4995522;28;20029;-66